Huanguelen, Argentina
Current Conditions -  °F | °C
As of 11:00 AM on Monday 22 Dec 2014 (Local Time) from SAZM Reporting Station
Broken Clouds Broken Clouds  
Wind Chill: 59°   Ceiling: 2500
Heat Index: 59°   Visibility: 6mi
Dew Point: 43°   Wind: 9mph
Humidity: 55%   Direction: 250°WSW
Pressure: 30"   Gusts: NA
Location:  37.06°S, 61.85°W
Report Text: SAZM 221400Z 25008KT 9999 BKN025 FEW035CBBKN080 15/06 Q1016
Loading
Personal Weather Stations






























Interactive Weather Map New forecast layout! Learn more

10-Day Weather Forecast

Advertisements
Track Severe Weather on mobile